Airfield :
LOGIN :

Register | Disclaimer

   EN    FR    IT 

 










Legend :    VFR   Marginal VFR   IFR   Intensive IFR   Very Intensive IFR
Visi :
Ceiling :
>= 8 km
>= 3000ft
5 to 8 km
1000 to 3000 ft
1500m to 5 km
500 to 1000 ft
800 to 1500m
200 to 500 ft
< 800m
< 200 ft
Symbols :   Thunderstorms  Fog  Heavy snow  Heavy precipitations  Wind > 20 kt
SIGMETs :     Misc.  Thunderstorms  Icing  Turbulence  Mountain Waves  Volcanic Ashes







- Airport Elevation : 436 ft
- IATA code : BTS


LZIB - Bratislava

CURRENT METAR :
  • 222200Z 02003KT CAVOK 24/17 Q1011

EXPIRED METARs :
  • 222130Z 22004KT 200V260 CAVOK 27/17 Q1011
  • 222100Z 19007KT CAVOK 26/17 Q1011
  • 222030Z VRB01KT CAVOK 27/17 Q1012
  • 222000Z VRB01KT CAVOK 27/16 Q1012
  • 221930Z 16006KT CAVOK 28/16 Q1012

TAF TAF LZIB
Valid from the 22 at 18:00 until the 23 at 18:00 UTC


221700Z 2218/2318 21005KT CAVOK
BECMG 2302/2304 30012KT 9999 FEW040 BKN100
BECMG 2306/2308 29018KT
TEMPO 2308/2318 30025G38KT SHRA FEW035CB BKN060
PROB40
TEMPO 2311/2318 6000 -TSRA SCT025CB BKN040
No reported NOTAMs for that airfield.



MET'MAP, your aeronautical weather chart ! - Copyright ORBIFLY December 2007 - Disclaimer

ORBIFLY MET'MAP TEAM :

Programming & Development : Alexandra Zaïnal
Concept & Development : Baudouin d'Aumeries
Co-Development & Prog : Marc-Olivier Méhu
Technical & hardware support : Manuel Goepfert

Contact : metmap@orbifly.com




SOURCES & CREDITS :

   NOAA